Time;durP1;ratioP1;P1;durP2;ratioP2;P2;SDS_P1;SDS_P2;PMS_P1;PMS_P2;Temp;Humidity;BMP_temperature;BMP_pressure;BME280_temperature;BME280_humidity;BME280_pressure;Samples;Min_cycle;Max_cycle;Signal;HPM_P1;HPM_P2
2022/07/13 00:00:28;;;;;;;;;;;;;;;35.23;26.86;101181.94;4425402;32;20259;-69
2022/07/13 00:02:54;;;;;;;;;;;;;;;35.58;26.39;101186.41;4427853;32;20004;-69
2022/07/13 00:05:19;;;;;;;;;;;;;;;35.43;26.59;101192.44;4430066;32;19968;-69
2022/07/13 00:07:45;;;;;;;;;;;;;;;35.36;26.64;101187.47;4427889;32;20244;-69
2022/07/13 00:10:10;;;;;;;;;;;;;;;35.20;26.88;101185.28;4430272;32;19984;-69
2022/07/13 00:12:36;;;;;;;;;;;;;;;35.18;26.79;101191.72;4428032;32;20056;-69
2022/07/13 00:15:01;;;;;;;;;;;;;;;35.42;26.69;101196.75;4429800;32;20440;-69
2022/07/13 00:17:28;;;;;;;;;;;;;;;35.32;26.73;101195.09;4425725;32;20058;-69
2022/07/13 00:19:53;;;;;;;;;;;;;;;35.34;26.46;101195.31;4429472;32;19962;-69
2022/07/13 00:22:19;;;;;;;;;;;;;;;35.23;26.37;101196.56;4428495;32;19965;-69
2022/07/13 00:24:44;;;;;;;;;;;;;;;35.21;26.16;101196.37;4428250;32;19953;-69
2022/07/13 00:27:10;;;;;;;;;;;;;;;34.81;26.61;101195.03;4427247;32;20009;-69
2022/07/13 00:29:35;;;;;;;;;;;;;;;35.38;25.77;101202.28;4426831;32;19960;-71
2022/07/13 00:32:00;;;;;;;;;;;;;;;35.20;25.86;101197.75;4428241;32;19992;-69
2022/07/13 00:34:26;;;;;;;;;;;;;;;35.26;25.73;101194.56;4429904;32;19963;-69
2022/07/13 00:36:52;;;;;;;;;;;;;;;35.12;25.88;101199.97;4426532;32;20025;-69
2022/07/13 00:39:18;;;;;;;;;;;;;;;34.91;26.06;101195.94;4426629;32;20002;-69
2022/07/13 00:41:45;;;;;;;;;;;;;;;35.41;25.46;101206.16;4429538;32;20362;-69
2022/07/13 00:44:11;;;;;;;;;;;;;;;35.20;25.73;101205.75;4430529;32;19989;-69
2022/07/13 00:46:39;;;;;;;;;;;;;;;35.23;25.72;101198.69;4427937;32;20428;-69
2022/07/13 00:49:05;;;;;;;;;;;;;;;34.99;26.10;101197.41;4427074;32;19965;-69
2022/07/13 00:51:30;;;;;;;;;;;;;;;35.25;25.84;101199.63;4430092;32;20345;-69
2022/07/13 00:53:57;;;;;;;;;;;;;;;35.28;25.72;101198.44;4427809;32;20398;-69
2022/07/13 00:56:24;;;;;;;;;;;;;;;35.44;25.54;101202.00;4429657;32;19948;-69
2022/07/13 00:58:50;;;;;;;;;;;;;;;35.51;25.48;101199.00;4424392;32;20073;-69
2022/07/13 01:01:16;;;;;;;;;;;;;;;35.48;25.35;101208.97;4429024;32;20421;-69
2022/07/13 01:03:42;;;;;;;;;;;;;;;35.49;25.43;101204.66;4426119;32;19986;-69
2022/07/13 01:06:10;;;;;;;;;;;;;;;35.64;25.42;101195.69;4426227;32;19989;-69
2022/07/13 01:08:35;;;;;;;;;;;;;;;35.45;25.69;101210.19;4428456;32;20362;-69
2022/07/13 01:11:01;;;;;;;;;;;;;;;35.25;26.07;101205.50;4428311;32;20041;-69
2022/07/13 01:13:27;;;;;;;;;;;;;;;35.30;26.10;101200.75;4428106;32;19994;-70
2022/07/13 01:15:52;;;;;;;;;;;;;;;35.09;26.57;101209.97;4429584;32;20028;-69
2022/07/13 01:18:18;;;;;;;;;;;;;;;34.83;26.96;101213.50;4426652;32;20069;-69
2022/07/13 01:20:44;;;;;;;;;;;;;;;35.31;26.33;101211.12;4429458;32;20001;-69
2022/07/13 01:23:10;;;;;;;;;;;;;;;35.10;26.94;101207.81;4429117;32;19995;-69
2022/07/13 01:25:36;;;;;;;;;;;;;;;35.08;26.93;101214.28;4424049;32;20334;-69
2022/07/13 01:28:02;;;;;;;;;;;;;;;34.85;27.33;101204.94;4412894;32;19968;-69
2022/07/13 01:30:27;;;;;;;;;;;;;;;35.06;27.26;101205.31;4427092;32;20004;-69
2022/07/13 01:32:52;;;;;;;;;;;;;;;34.90;27.58;101206.84;4429801;32;20494;-69
2022/07/13 01:35:19;;;;;;;;;;;;;;;35.05;27.39;101197.91;4427442;32;19960;-69
2022/07/13 01:37:44;;;;;;;;;;;;;;;34.72;27.83;101210.31;4427784;32;19961;-69
2022/07/13 01:40:10;;;;;;;;;;;;;;;34.99;27.60;101214.94;4426399;32;20680;-69
2022/07/13 01:42:40;;;;;;;;;;;;;;;34.57;28.44;101213.34;4414228;32;20054;-69
2022/07/13 01:45:07;;;;;;;;;;;;;;;34.36;28.80;101210.78;4413651;32;19976;-69
2022/07/13 01:47:36;;;;;;;;;;;;;;;33.78;29.79;101208.34;4428971;32;19997;-69
2022/07/13 01:50:02;;;;;;;;;;;;;;;34.00;29.42;101210.41;4424087;32;20327;-69
2022/07/13 01:52:28;;;;;;;;;;;;;;;34.05;29.46;101207.25;4429639;32;19971;-69
2022/07/13 01:54:53;;;;;;;;;;;;;;;34.31;29.07;101205.91;4428319;32;20420;-69
2022/07/13 01:57:19;;;;;;;;;;;;;;;34.48;28.85;101202.31;4424921;32;20097;-70
2022/07/13 01:59:44;;;;;;;;;;;;;;;34.23;29.26;101205.97;4426085;32;20000;-70
2022/07/13 02:02:09;;;;;;;;;;;;;;;34.84;28.41;101200.44;4425972;32;19969;-69
2022/07/13 02:04:36;;;;;;;;;;;;;;;34.59;28.78;101195.97;4426827;32;19999;-69
2022/07/13 02:07:01;;;;;;;;;;;;;;;34.87;28.41;101213.88;4414178;32;20437;-68
2022/07/13 02:09:26;;;;;;;;;;;;;;;34.37;29.10;101209.41;4427395;32;19953;-68
2022/07/13 02:11:52;;;;;;;;;;;;;;;34.08;29.59;101206.06;4429113;32;19986;-68
2022/07/13 02:14:17;;;;;;;;;;;;;;;34.70;28.71;101193.37;4428453;32;20000;-68
2022/07/13 02:16:43;;;;;;;;;;;;;;;34.38;29.20;101198.50;4425592;32;19957;-68
2022/07/13 02:19:09;;;;;;;;;;;;;;;34.41;29.15;101197.31;4427759;32;19997;-68
2022/07/13 02:21:34;;;;;;;;;;;;;;;34.48;28.92;101205.25;4428626;32;20011;-68
2022/07/13 02:24:00;;;;;;;;;;;;;;;34.66;28.80;101213.44;4429072;32;19997;-68
2022/07/13 02:26:25;;;;;;;;;;;;;;;34.80;28.62;101205.94;4424508;32;19997;-68
2022/07/13 02:28:51;;;;;;;;;;;;;;;34.99;28.34;101202.47;4429092;32;20026;-68
2022/07/13 02:31:18;;;;;;;;;;;;;;;34.35;29.25;101203.34;4429675;32;20000;-68
2022/07/13 02:33:44;;;;;;;;;;;;;;;34.48;28.98;101196.47;4425267;32;19969;-68
2022/07/13 02:36:09;;;;;;;;;;;;;;;35.01;28.22;101199.72;4427397;32;19969;-68
2022/07/13 02:38:34;;;;;;;;;;;;;;;35.22;28.02;101200.84;4426505;32;19960;-68
2022/07/13 02:41:00;;;;;;;;;;;;;;;35.17;27.89;101201.09;4427854;32;19992;-68
2022/07/13 02:43:25;;;;;;;;;;;;;;;34.85;28.27;101196.16;4426602;32;20206;-68
2022/07/13 02:45:51;;;;;;;;;;;;;;;35.07;28.02;101198.09;4424472;32;20041;-68
2022/07/13 02:48:18;;;;;;;;;;;;;;;34.97;27.95;101200.13;4429232;32;20067;-68
2022/07/13 02:50:44;;;;;;;;;;;;;;;35.02;27.91;101198.34;4424891;32;19996;-68
2022/07/13 02:53:09;;;;;;;;;;;;;;;34.59;28.54;101204.75;4427439;32;20433;-68
2022/07/13 02:55:35;;;;;;;;;;;;;;;34.63;28.36;101205.12;4424486;32;20027;-68
2022/07/13 02:58:00;;;;;;;;;;;;;;;34.55;28.50;101213.94;4428063;32;19971;-68
2022/07/13 03:00:26;;;;;;;;;;;;;;;34.31;28.83;101206.69;4424019;32;20011;-68
2022/07/13 03:02:51;;;;;;;;;;;;;;;33.55;30.09;101213.47;4427556;32;20445;-68
2022/07/13 03:05:17;;;;;;;;;;;;;;;34.33;28.93;101215.63;4423500;32;20008;-68
2022/07/13 03:07:43;;;;;;;;;;;;;;;34.21;29.06;101214.53;4427900;32;19997;-68
2022/07/13 03:10:09;;;;;;;;;;;;;;;34.41;28.76;101215.59;4426995;32;19953;-68
2022/07/13 03:12:34;;;;;;;;;;;;;;;34.32;28.97;101201.59;4425014;32;20000;-68
2022/07/13 03:14:59;;;;;;;;;;;;;;;34.19;29.21;101210.66;4427667;32;20383;-68
2022/07/13 03:17:25;;;;;;;;;;;;;;;33.74;29.70;101193.34;4430479;32;20354;-68
2022/07/13 03:19:50;;;;;;;;;;;;;;;33.98;29.48;101201.44;4427979;32;19992;-68
2022/07/13 03:22:16;;;;;;;;;;;;;;;34.19;29.10;101207.75;4426610;32;20042;-68
2022/07/13 03:24:41;;;;;;;;;;;;;;;33.74;29.80;101217.50;4425819;32;20021;-68
2022/07/13 03:27:07;;;;;;;;;;;;;;;33.31;30.36;101220.72;4429545;32;20308;-68
2022/07/13 03:29:32;;;;;;;;;;;;;;;33.48;30.27;101218.00;4428902;32;19961;-68
2022/07/13 03:31:58;;;;;;;;;;;;;;;33.47;30.21;101222.25;4432732;32;20565;-68
2022/07/13 03:34:23;;;;;;;;;;;;;;;33.55;30.18;101216.41;4428630;32;20008;-68
2022/07/13 03:36:49;;;;;;;;;;;;;;;33.46;30.19;101220.72;4427714;32;20492;-68
2022/07/13 03:39:14;;;;;;;;;;;;;;;33.23;30.55;101219.97;4429716;32;20402;-68
2022/07/13 03:41:40;;;;;;;;;;;;;;;33.47;30.09;101210.59;4431403;32;19984;-68
2022/07/13 03:44:06;;;;;;;;;;;;;;;33.54;30.09;101212.72;4432390;32;19953;-68
2022/07/13 03:46:31;;;;;;;;;;;;;;;33.11;30.72;101215.91;4432026;32;21732;-68
2022/07/13 03:48:58;;;;;;;;;;;;;;;33.22;30.38;101226.41;4430742;32;20011;-68
2022/07/13 03:51:23;;;;;;;;;;;;;;;33.11;30.78;101226.81;4428200;32;20036;-68
2022/07/13 03:53:49;;;;;;;;;;;;;;;33.28;30.36;101227.72;4429955;32;19954;-68
2022/07/13 03:56:14;;;;;;;;;;;;;;;33.39;30.27;101233.19;4427119;32;19965;-68
2022/07/13 03:58:39;;;;;;;;;;;;;;;33.08;30.65;101236.72;4426288;32;19956;-68
2022/07/13 04:01:05;;;;;;;;;;;;;;;33.34;30.34;101247.97;4429653;32;20022;-68
2022/07/13 04:03:31;;;;;;;;;;;;;;;33.52;29.96;101246.75;4430037;32;19988;-68
2022/07/13 04:05:57;;;;;;;;;;;;;;;33.38;29.75;101242.53;4427758;32;20016;-68
2022/07/13 04:08:22;;;;;;;;;;;;;;;33.45;29.58;101238.81;4425182;32;19993;-68
2022/07/13 04:10:47;;;;;;;;;;;;;;;33.25;29.68;101236.91;4429337;32;20396;-68
2022/07/13 04:13:13;;;;;;;;;;;;;;;32.95;30.02;101234.81;4431530;32;19985;-68
2022/07/13 04:15:38;;;;;;;;;;;;;;;32.71;30.38;101231.66;4429469;32;20398;-68
2022/07/13 04:18:04;;;;;;;;;;;;;;;32.86;30.14;101220.03;4433113;32;20315;-68
2022/07/13 04:20:29;;;;;;;;;;;;;;;32.94;29.99;101220.81;4426290;32;19965;-68
2022/07/13 04:22:55;;;;;;;;;;;;;;;32.56;30.55;101226.59;4430081;32;20031;-68
2022/07/13 04:25:21;;;;;;;;;;;;;;;32.65;30.57;101232.63;4426017;32;19996;-68
2022/07/13 04:27:47;;;;;;;;;;;;;;;32.67;30.36;101241.56;4428730;32;20152;-68
2022/07/13 04:30:12;;;;;;;;;;;;;;;32.32;30.88;101232.94;4428541;32;20031;-68
2022/07/13 04:32:37;;;;;;;;;;;;;;;32.61;30.53;101235.16;4429096;32;19997;-68
2022/07/13 04:35:03;;;;;;;;;;;;;;;32.29;30.92;101237.81;4424854;32;20012;-68
2022/07/13 04:37:29;;;;;;;;;;;;;;;31.88;31.57;101249.72;4428381;32;20265;-68
2022/07/13 04:39:54;;;;;;;;;;;;;;;32.01;31.14;101260.44;4427717;32;19998;-68
2022/07/13 04:42:20;;;;;;;;;;;;;;;32.37;30.50;101272.81;4428107;32;19961;-68
2022/07/13 04:44:46;;;;;;;;;;;;;;;31.79;31.27;101278.56;4429722;32;20315;-68
2022/07/13 04:47:11;;;;;;;;;;;;;;;32.30;30.41;101276.44;4401963;32;20026;-68
2022/07/13 04:49:37;;;;;;;;;;;;;;;31.94;30.80;101275.75;4426563;32;20004;-68
2022/07/13 04:52:03;;;;;;;;;;;;;;;32.47;29.66;101270.87;4429548;32;19949;-68
2022/07/13 04:54:30;;;;;;;;;;;;;;;32.30;30.10;101273.53;4427759;32;20465;-68
2022/07/13 04:56:55;;;;;;;;;;;;;;;32.63;29.55;101271.69;4428697;32;20337;-68
2022/07/13 04:59:21;;;;;;;;;;;;;;;32.27;30.06;101271.78;4423556;32;20008;-68
2022/07/13 05:01:46;;;;;;;;;;;;;;;31.36;31.31;101288.03;4427583;32;19961;-68
2022/07/13 05:04:12;;;;;;;;;;;;;;;31.47;31.03;101289.84;4427274;32;20438;-68
2022/07/13 05:06:37;;;;;;;;;;;;;;;31.93;30.51;101298.25;4425938;32;20044;-68
2022/07/13 05:09:03;;;;;;;;;;;;;;;31.18;31.26;101299.88;4428595;32;20019;-68
2022/07/13 05:11:28;;;;;;;;;;;;;;;31.39;30.70;101306.44;4426094;32;20458;-68
2022/07/13 05:13:54;;;;;;;;;;;;;;;32.11;29.73;101294.25;4428155;32;19965;-68
2022/07/13 05:16:19;;;;;;;;;;;;;;;31.38;30.47;101304.91;4425723;32;20320;-68
2022/07/13 05:18:45;;;;;;;;;;;;;;;31.71;29.86;101306.84;4426962;32;20871;-68
2022/07/13 05:21:11;;;;;;;;;;;;;;;31.44;29.99;101323.00;4429141;32;20046;-68
2022/07/13 05:23:37;;;;;;;;;;;;;;;32.06;29.07;101320.66;4428476;32;19949;-68
2022/07/13 05:26:03;;;;;;;;;;;;;;;32.25;28.36;101324.81;4427620;32;20441;-68
2022/07/13 05:28:29;;;;;;;;;;;;;;;32.23;28.13;101312.94;4426560;32;20139;-68
2022/07/13 05:30:55;;;;;;;;;;;;;;;31.65;28.70;101312.84;4427476;32;20030;-68
2022/07/13 05:33:20;;;;;;;;;;;;;;;31.45;28.66;101321.63;4427099;32;19957;-69
2022/07/13 05:35:46;;;;;;;;;;;;;;;31.53;28.03;101334.87;4426258;32;19945;-68
2022/07/13 05:38:12;;;;;;;;;;;;;;;30.65;28.83;101332.09;4426739;32;20004;-68
2022/07/13 05:40:38;;;;;;;;;;;;;;;31.48;27.58;101335.03;4426717;32;19956;-68
2022/07/13 05:43:04;;;;;;;;;;;;;;;31.65;27.10;101338.22;4430271;32;19969;-68
2022/07/13 05:45:29;;;;;;;;;;;;;;;31.67;27.19;101338.44;4427973;32;20368;-68
2022/07/13 05:47:54;;;;;;;;;;;;;;;32.16;26.61;101331.19;4430093;32;19964;-68
2022/07/13 05:50:20;;;;;;;;;;;;;;;32.44;26.08;101336.94;4428096;32;19967;-68
2022/07/13 05:52:46;;;;;;;;;;;;;;;32.54;26.10;101340.06;4426203;32;20005;-68
2022/07/13 05:55:11;;;;;;;;;;;;;;;32.22;26.43;101351.38;4425062;32;20035;-68
2022/07/13 05:57:37;;;;;;;;;;;;;;;32.24;26.35;101351.59;4412677;32;19994;-68
2022/07/13 06:00:03;;;;;;;;;;;;;;;32.23;26.50;101352.94;4424553;32;20335;-68
2022/07/13 06:02:28;;;;;;;;;;;;;;;31.25;27.47;101352.28;4427604;32;19945;-69
2022/07/13 06:04:54;;;;;;;;;;;;;;;31.70;26.86;101355.56;4427487;32;19980;-69
2022/07/13 06:07:19;;;;;;;;;;;;;;;32.28;25.98;101355.66;4424779;32;20732;-68
2022/07/13 06:09:45;;;;;;;;;;;;;;;31.68;26.24;101366.97;4425215;32;20487;-68
2022/07/13 06:12:10;;;;;;;;;;;;;;;31.79;25.82;101363.78;4429339;32;19957;-68
2022/07/13 06:14:36;;;;;;;;;;;;;;;32.06;25.43;101364.31;4428874;32;20008;-68
2022/07/13 06:17:01;;;;;;;;;;;;;;;31.86;25.15;101377.62;4423602;32;19988;-68
2022/07/13 06:19:27;;;;;;;;;;;;;;;31.08;25.83;101383.94;4426626;32;19953;-68
2022/07/13 06:21:52;;;;;;;;;;;;;;;31.22;25.66;101373.78;4427374;32;19963;-68
2022/07/13 06:24:17;;;;;;;;;;;;;;;30.99;25.83;101378.63;4426092;32;20016;-68
2022/07/13 06:26:43;;;;;;;;;;;;;;;30.87;25.88;101383.16;4410835;32;19971;-68
2022/07/13 06:29:08;;;;;;;;;;;;;;;30.94;25.75;101388.25;4425816;32;20104;-68
2022/07/13 06:31:34;;;;;;;;;;;;;;;30.96;25.71;101378.97;4427132;32;20120;-68
2022/07/13 06:33:59;;;;;;;;;;;;;;;30.36;26.28;101374.00;4427130;32;20052;-68
2022/07/13 06:36:25;;;;;;;;;;;;;;;30.58;25.89;101369.81;4422781;32;20393;-68
2022/07/13 06:38:50;;;;;;;;;;;;;;;31.16;25.12;101370.22;4417476;32;20037;-68
2022/07/13 06:41:16;;;;;;;;;;;;;;;30.51;25.55;101370.50;4414295;32;20031;-68
2022/07/13 06:43:42;;;;;;;;;;;;;;;30.56;25.23;101376.16;4404172;32;20086;-68
2022/07/13 06:46:08;;;;;;;;;;;;;;;30.53;25.45;101371.50;4401142;32;20632;-68
2022/07/13 06:48:35;;;;;;;;;;;;;;;30.28;25.72;101386.88;4400054;32;20071;-68
2022/07/13 06:51:00;;;;;;;;;;;;;;;30.74;24.98;101371.59;4403127;32;19993;-68
2022/07/13 06:53:26;;;;;;;;;;;;;;;30.65;25.01;101383.66;4402812;32;20329;-68
2022/07/13 06:55:52;;;;;;;;;;;;;;;30.41;25.32;101376.03;4413453;32;20053;-68
2022/07/13 06:58:17;;;;;;;;;;;;;;;30.43;25.18;101384.16;4406574;32;20295;-68
2022/07/13 07:00:43;;;;;;;;;;;;;;;30.35;25.31;101389.09;4412601;32;19993;-68
2022/07/13 07:03:08;;;;;;;;;;;;;;;31.15;24.31;101385.34;4413236;32;20015;-68
2022/07/13 07:05:34;;;;;;;;;;;;;;;31.42;24.04;101392.59;4412643;32;20330;-68
2022/07/13 07:08:00;;;;;;;;;;;;;;;31.91;23.27;101399.94;4403842;32;20070;-68
2022/07/13 07:10:25;;;;;;;;;;;;;;;32.13;23.04;101399.31;4413343;32;20004;-68
2022/07/13 07:12:51;;;;;;;;;;;;;;;32.25;22.81;101396.84;4409169;32;20068;-68
2022/07/13 07:15:16;;;;;;;;;;;;;;;32.10;22.70;101391.72;4410985;32;20035;-68
2022/07/13 07:17:49;;;;;;;;;;;;;;;32.11;22.61;101401.22;4409365;32;19983;-68
2022/07/13 07:20:15;;;;;;;;;;;;;;;31.46;23.04;101407.53;4408748;32;21094;-68
2022/07/13 07:22:41;;;;;;;;;;;;;;;31.58;22.28;101417.53;4413044;32;20709;-68
2022/07/13 07:25:07;;;;;;;;;;;;;;;31.96;21.84;101407.75;4411626;32;19958;-68
2022/07/13 07:27:33;;;;;;;;;;;;;;;32.70;21.33;101407.94;4409029;32;19997;-69
2022/07/13 07:29:58;;;;;;;;;;;;;;;32.53;21.35;101406.31;4404881;32;20438;-69
2022/07/13 07:32:24;;;;;;;;;;;;;;;31.66;22.36;101410.41;4416507;32;20008;-69
2022/07/13 07:34:50;;;;;;;;;;;;;;;32.50;21.39;101403.78;4407935;32;20024;-68
2022/07/13 07:37:15;;;;;;;;;;;;;;;32.36;21.81;101408.19;4408390;32;20045;-68
2022/07/13 07:39:41;;;;;;;;;;;;;;;31.68;22.48;101425.19;4406323;32;20008;-68
2022/07/13 07:42:06;;;;;;;;;;;;;;;32.12;22.08;101409.38;4409627;32;19980;-69
2022/07/13 07:44:32;;;;;;;;;;;;;;;32.18;22.08;101418.75;4409939;32;20020;-69
2022/07/13 07:46:58;;;;;;;;;;;;;;;31.37;22.87;101422.59;4408658;32;20347;-69
2022/07/13 07:49:23;;;;;;;;;;;;;;;31.90;22.35;101412.94;4411462;32;20011;-69
2022/07/13 07:51:49;;;;;;;;;;;;;;;32.42;21.84;101421.22;4407415;32;20016;-69
2022/07/13 07:54:15;;;;;;;;;;;;;;;31.33;22.93;101425.88;4410426;32;20048;-69
2022/07/13 07:56:41;;;;;;;;;;;;;;;30.63;23.63;101421.19;4412844;32;20011;-70
2022/07/13 07:59:07;;;;;;;;;;;;;;;30.99;23.09;101430.94;4386666;32;20100;-70
2022/07/13 08:01:33;;;;;;;;;;;;;;;31.41;22.51;101428.84;4409936;32;20012;-69
2022/07/13 08:03:58;;;;;;;;;;;;;;;30.74;23.42;101433.37;4408352;32;20433;-70
2022/07/13 08:06:24;;;;;;;;;;;;;;;30.34;24.12;101419.50;4410221;32;20311;-69
2022/07/13 08:08:49;;;;;;;;;;;;;;;30.51;24.01;101420.69;4410997;32;20121;-70
2022/07/13 08:11:17;;;;;;;;;;;;;;;30.46;23.74;101429.50;4411028;32;19991;-68
2022/07/13 08:13:44;;;;;;;;;;;;;;;31.09;22.96;101431.22;4410393;32;20008;-68
2022/07/13 08:16:10;;;;;;;;;;;;;;;31.44;22.81;101431.38;4410307;32;19996;-68
2022/07/13 08:18:36;;;;;;;;;;;;;;;30.63;23.55;101436.53;4410926;32;19973;-69
2022/07/13 08:21:01;;;;;;;;;;;;;;;29.96;24.16;101442.16;4408839;32;20052;-69
2022/07/13 08:23:58;;;;;;;;;;;;;;;29.87;24.61;101430.19;4409517;32;20041;-70
2022/07/13 08:26:13;;;;;;;;;;;;;;;30.67;23.68;101434.03;4407434;32;20103;-70
2022/07/13 08:28:39;;;;;;;;;;;;;;;30.65;23.73;101435.97;4410706;32;19988;-70
2022/07/13 08:31:05;;;;;;;;;;;;;;;31.33;22.93;101431.69;4409011;32;20397;-70
2022/07/13 08:39:01;;;;;;;;;;;;;;;30.73;23.74;101437.63;4409417;32;19993;-70
2022/07/13 08:41:28;;;;;;;;;;;;;;;31.42;22.97;101428.28;4414006;32;20026;-69
2022/07/13 08:43:54;;;;;;;;;;;;;;;31.76;22.51;101428.94;4413285;32;21212;-69
2022/07/13 08:46:21;;;;;;;;;;;;;;;31.59;22.79;101416.19;4406286;32;20033;-70
2022/07/13 08:48:49;;;;;;;;;;;;;;;32.79;21.64;101416.13;4412605;32;19989;-69
2022/07/13 08:51:17;;;;;;;;;;;;;;;32.80;21.42;101420.59;4408324;32;19990;-69
2022/07/13 08:53:43;;;;;;;;;;;;;;;32.50;21.78;101416.22;4409561;32;20423;-69
2022/07/13 08:56:09;;;;;;;;;;;;;;;32.72;21.59;101417.66;4411687;32;20046;-68
2022/07/13 08:58:36;;;;;;;;;;;;;;;33.73;20.31;101419.53;4410754;32;20042;-69
2022/07/13 09:01:02;;;;;;;;;;;;;;;34.60;19.62;101429.28;4408162;32;20001;-68
2022/07/13 09:03:33;;;;;;;;;;;;;;;34.32;19.38;101417.88;4398397;32;20388;-68
2022/07/13 09:05:59;;;;;;;;;;;;;;;33.93;19.77;101418.59;4406122;32;20015;-69
2022/07/13 09:08:24;;;;;;;;;;;;;;;34.03;19.96;101429.06;4408257;32;20662;-68
2022/07/13 09:11:05;;;;;;;;;;;;;;;33.98;20.07;101424.22;4406025;32;21394;-69
2022/07/13 09:18:52;;;;;;;;;;;;;;;34.58;19.52;101429.09;3941935;32;15723509;-70
2022/07/13 09:21:19;;;;;;;;;;;;;;;34.92;19.17;101432.25;4419388;32;19957;-70
2022/07/13 09:23:47;;;;;;;;;;;;;;;35.01;19.04;101422.06;4404990;32;20001;-69
2022/07/13 09:26:13;;;;;;;;;;;;;;;34.77;19.22;101416.91;4418575;32;20007;-70
2022/07/13 09:28:41;;;;;;;;;;;;;;;33.95;20.20;101421.69;4420521;32;20009;-70
2022/07/13 09:31:07;;;;;;;;;;;;;;;35.38;18.82;101415.19;4422096;32;19960;-70
2022/07/13 09:33:34;;;;;;;;;;;;;;;35.15;19.03;101420.41;4420905;32;19992;-70
2022/07/13 09:36:16;;;;;;;;;;;;;;;34.16;19.70;101423.00;4419109;32;20015;-70
2022/07/13 09:38:43;;;;;;;;;;;;;;;34.94;19.10;101428.75;4417882;32;20040;-69
2022/07/13 09:46:26;;;;;;;;;;;;;;;36.67;18.04;101436.69;3941536;32;15722406;-68
2022/07/13 09:48:51;;;;;;;;;;;;;;;36.67;18.04;101436.69;4418984;32;20000;-69
2022/07/13 09:51:24;;;;;;;;;;;;;;;36.06;17.87;101441.69;4420992;32;19988;-69
2022/07/13 09:53:51;;;;;;;;;;;;;;;35.98;17.40;101438.06;4422490;32;19976;-70
2022/07/13 09:56:17;;;;;;;;;;;;;;;35.73;17.46;101437.31;4417945;32;20020;-71
2022/07/13 09:58:43;;;;;;;;;;;;;;;36.56;16.99;101445.25;4421750;32;20406;-71
2022/07/13 10:01:08;;;;;;;;;;;;;;;36.47;17.30;101449.66;4419654;32;20078;-70
2022/07/13 10:03:35;;;;;;;;;;;;;;;35.80;18.02;101443.13;4424500;32;20091;-70
2022/07/13 10:06:02;;;;;;;;;;;;;;;36.60;16.90;101442.66;4421059;32;20354;-70
2022/07/13 10:08:27;;;;;;;;;;;;;;;37.05;16.46;101442.03;4391131;32;20029;-70
2022/07/13 10:10:53;;;;;;;;;;;;;;;36.89;16.64;101437.78;4420228;32;20656;-70
2022/07/13 10:13:19;;;;;;;;;;;;;;;37.45;16.38;101442.41;4419117;32;20472;-69
2022/07/13 10:15:45;;;;;;;;;;;;;;;37.60;15.77;101448.81;4401634;32;20024;-69
2022/07/13 10:18:13;;;;;;;;;;;;;;;38.30;15.55;101455.81;4419493;32;20346;-71
2022/07/13 10:20:42;;;;;;;;;;;;;;;37.61;15.98;101447.41;4417503;32;20407;-69
2022/07/13 10:23:07;;;;;;;;;;;;;;;37.80;16.04;101458.50;4418027;32;19986;-70
2022/07/13 10:25:51;;;;;;;;;;;;;;;38.78;15.42;101439.72;4420453;32;20034;-69
2022/07/13 10:28:18;;;;;;;;;;;;;;;38.74;14.70;101444.53;4416890;32;20328;-70
2022/07/13 10:30:44;;;;;;;;;;;;;;;39.16;14.25;101450.63;4419377;32;19985;-68
2022/07/13 10:35:53;;;;;;;;;;;;;;;41.11;12.70;101465.16;3941698;32;15722581;-69
2022/07/13 10:38:20;;;;;;;;;;;;;;;41.11;12.70;101465.16;4414838;32;20355;-68
2022/07/13 10:40:46;;;;;;;;;;;;;;;41.12;12.80;101457.84;4414170;32;20001;-69
2022/07/13 10:43:12;;;;;;;;;;;;;;;40.74;12.98;101464.91;4414695;32;20340;-68
2022/07/13 10:45:40;;;;;;;;;;;;;;;40.89;13.16;101470.34;4416681;32;20004;-69
2022/07/13 10:48:10;;;;;;;;;;;;;;;40.14;13.69;101459.94;4416480;32;20001;-69
2022/07/13 10:50:43;;;;;;;;;;;;;;;39.48;13.89;101456.72;4416897;32;19993;-69
2022/07/13 10:53:08;;;;;;;;;;;;;;;40.67;12.83;101447.44;4420134;32;20001;-69
2022/07/13 10:55:34;;;;;;;;;;;;;;;41.39;11.96;101449.28;4416191;32;20169;-69
2022/07/13 10:58:20;;;;;;;;;;;;;;;41.33;12.74;101451.84;4415268;32;20458;-69
2022/07/13 11:00:47;;;;;;;;;;;;;;;40.87;13.02;101455.47;4412262;32;20407;-69
2022/07/13 11:03:37;;;;;;;;;;;;;;;39.65;13.83;101459.44;4416664;32;19961;-69
2022/07/13 11:08:43;;;;;;;;;;;;;;;40.83;12.76;101451.47;3951759;31;15718053;-68
2022/07/13 11:11:11;;;;;;;;;;;;;;;40.83;12.76;101451.47;4418787;32;20005;-68
2022/07/13 11:13:37;;;;;;;;;;;;;;;40.06;13.18;101451.28;4420069;32;20132;-68
2022/07/13 11:16:03;;;;;;;;;;;;;;;40.02;12.48;101447.28;4418608;32;20039;-69
2022/07/13 11:18:32;;;;;;;;;;;;;;;40.19;12.79;101447.00;4422303;32;20031;-68
2022/07/13 11:20:59;;;;;;;;;;;;;;;39.62;13.28;101457.75;4418315;32;20027;-68
2022/07/13 11:26:19;;;;;;;;;;;;;;;40.16;13.06;101460.06;4418711;32;19981;-69
2022/07/13 11:28:55;;;;;;;;;;;;;;;41.35;12.11;101458.62;4415284;32;20023;-68
2022/07/13 11:31:21;;;;;;;;;;;;;;;41.45;11.68;101446.72;4419481;32;20044;-68
2022/07/13 11:33:49;;;;;;;;;;;;;;;41.58;11.97;101460.87;4418092;32;20012;-68
2022/07/13 11:36:18;;;;;;;;;;;;;;;41.35;12.31;101466.75;4421953;32;19953;-68
2022/07/13 11:38:44;;;;;;;;;;;;;;;42.37;11.45;101458.47;4421936;32;19985;-69
2022/07/13 11:41:16;;;;;;;;;;;;;;;42.22;11.87;101461.97;4420765;32;20358;-69
2022/07/13 11:43:45;;;;;;;;;;;;;;;43.40;11.46;101452.66;4421208;32;19987;-68
2022/07/13 11:46:11;;;;;;;;;;;;;;;43.56;11.46;101465.44;4417113;32;20450;-69
2022/07/13 11:48:37;;;;;;;;;;;;;;;43.16;11.15;101463.91;4419407;32;20011;-71
2022/07/13 11:51:06;;;;;;;;;;;;;;;43.07;11.31;101468.59;4418313;32;20050;-68
2022/07/13 11:53:32;;;;;;;;;;;;;;;41.74;11.96;101458.94;4418693;32;20032;-69
2022/07/13 11:56:02;;;;;;;;;;;;;;;42.91;11.02;101455.78;4417995;32;19960;-68
2022/07/13 11:58:29;;;;;;;;;;;;;;;41.94;11.64;101460.22;4419600;32;19996;-69
2022/07/13 12:00:56;;;;;;;;;;;;;;;42.63;10.73;101460.03;4420397;32;20425;-69
2022/07/13 12:03:30;;;;;;;;;;;;;;;43.52;10.19;101451.16;4418694;32;20509;-68
2022/07/13 12:06:04;;;;;;;;;;;;;;;42.12;10.76;101461.34;4417577;32;19989;-68
2022/07/13 12:08:31;;;;;;;;;;;;;;;43.05;10.55;101446.94;4413609;32;19988;-68
2022/07/13 12:10:56;;;;;;;;;;;;;;;43.60;10.19;101447.88;4416206;32;21145;-69
2022/07/13 12:13:23;;;;;;;;;;;;;;;43.44;10.35;101443.97;4419968;32;20427;-68
2022/07/13 12:15:48;;;;;;;;;;;;;;;44.17;9.79;101453.22;4418423;32;20066;-68
2022/07/13 12:18:14;;;;;;;;;;;;;;;44.03;9.96;101452.50;4417027;32;19992;-68
2022/07/13 12:20:39;;;;;;;;;;;;;;;43.59;10.37;101449.31;4411507;32;19954;-68
2022/07/13 12:23:07;;;;;;;;;;;;;;;43.41;10.57;101436.41;4409941;32;19965;-69
2022/07/13 12:25:34;;;;;;;;;;;;;;;44.72;9.82;101436.84;4412773;32;20608;-69
2022/07/13 12:28:01;;;;;;;;;;;;;;;44.60;10.17;101432.47;4406652;32;20018;-69
2022/07/13 12:30:30;;;;;;;;;;;;;;;44.87;9.90;101428.66;4413784;32;20016;-69
2022/07/13 12:35:37;;;;;;;;;;;;;;;42.18;11.48;101441.00;3909998;32;15718888;-71
2022/07/13 12:38:04;;;;;;;;;;;;;;;42.18;11.48;101441.00;4371137;32;20002;-70
2022/07/13 12:40:40;;;;;;;;;;;;;;;41.68;12.10;101420.13;4368439;32;20738;-69
2022/07/13 12:43:15;;;;;;;;;;;;;;;42.57;11.66;101433.03;4375471;32;20193;-71
2022/07/13 12:45:40;;;;;;;;;;;;;;;42.18;12.07;101426.19;4370778;32;19990;-68
2022/07/13 12:48:14;;;;;;;;;;;;;;;41.63;12.28;101438.25;4372710;32;19998;-72
2022/07/13 12:50:40;;;;;;;;;;;;;;;42.44;11.48;101424.06;4376591;32;20527;-70
2022/07/13 12:53:05;;;;;;;;;;;;;;;42.44;11.22;101427.81;4373108;32;19981;-69
2022/07/13 12:55:49;;;;;;;;;;;;;;;41.42;11.71;101421.41;4371140;32;19962;-69
2022/07/13 12:58:14;;;;;;;;;;;;;;;40.75;11.81;101418.44;4371346;32;19965;-69